Three Stars — 3ELI2 — position and weather

sailwx.info

Track history (hours):
 
Tides and Currents Weather Stations Pressure Air Temp Water Temp Dewpoint Dewpoint Depression Visibility Wind Speed Wind Dir Waves Ship Positions

Three Stars

Last reported at 2017-Oct-19 03:46 UTC. Time now 2017-Dec-17 17:53 UTC.
Position N 31°28' E 032°19'.
Warning: this ship's position is 59 days out of date.

Length 225 m; draft 14.3 m.

Type: Cargo ship. MMSI: 372950000.

Date/timePositionNaut miles runAvg speedWind from/ knotsBaromVisibWave heightAir tempDewpointWater temp
2017-Oct-19 03:46N 31°28' E 032°19'0 0.0
2017-Oct-18 23:52N 31°28' E 032°19'  
2017-Oct-15 00:53N 36°18' E 015°11'512.4
2017-Oct-15 00:29N 36°19' E 015°05'712.4
2017-Oct-14 23:53N 36°21' E 014°56'512.2
2017-Oct-14 23:28N 36°23' E 014°50'612.2
2017-Oct-14 23:00N 36°25' E 014°44'612.4
2017-Oct-14 22:30N 36°27' E 014°36'712.5
2017-Oct-14 21:56N 36°29' E 014°28'612.5
2017-Oct-14 21:28N 36°31' E 014°21'612.5
2017-Oct-14 21:00N 36°33' E 014°14'612.4
2017-Oct-14 20:30N 36°35' E 014°07'1212.3
2017-Oct-14 19:29N 36°39' E 013°52'1912.3
2017-Oct-14 17:57N 36°44' E 013°30'512.1
2017-Oct-14 17:30N 36°46' E 013°23'612.0
2017-Oct-14 17:00N 36°48' E 013°16'1011.9
2017-Oct-14 16:10N 36°51' E 013°04'40611.5
2017-Oct-13 04:52N 37°08' E 004°37'4611.8
2017-Oct-13 00:57N 37°02' E 003°40'511.9
2017-Oct-13 00:30N 37°01' E 003°33'611.7
2017-Oct-13 00:00N 36°60' E 003°26'3811.7
2017-Oct-12 20:47N 36°56' E 002°39'411.3
2017-Oct-12 20:24N 36°54' E 002°34'511.7
2017-Oct-12 20:01N 36°54' E 002°28'811.8
2017-Oct-12 19:22N 36°52' E 002°19'511.9
2017-Oct-12 18:59N 36°52' E 002°13'1011.7
2017-Oct-12 18:08N 36°50' E 002°01'211.9
2017-Oct-12 18:00N 36°50' E 001°59'1312.0
2017-Oct-12 16:58N 36°48' E 001°44'511.9
2017-Oct-12 16:30N 36°48' E 001°37'2311.5
2017-Oct-12 14:29N 36°44' E 001°08'511.0
2017-Oct-12 14:00N 36°44' E 001°02'510.9
2017-Oct-12 13:30N 36°43' E 000°55'711.4
2017-Oct-12 12:51N 36°42' E 000°46'411.6
2017-Oct-12 12:30N 36°42' E 000°41'611.7
2017-Oct-12 12:01N 36°41' E 000°34'611.6
2017-Oct-12 11:30N 36°40' E 000°26'611.6
2017-Oct-12 11:00N 36°39' E 000°19'611.6
2017-Oct-12 10:30N 36°38' E 000°12'611.6
2017-Oct-12 09:57N 36°38' E 000°04'511.7
2017-Oct-12 09:29N 36°37' W 000°02'2611.8
2017-Oct-12 07:15N 36°33' W 000°35'511.6
2017-Oct-12 06:50N 36°32' W 000°41'1111.7
2017-Oct-12 05:54N 36°31' W 000°55'811.7
2017-Oct-12 05:11N 36°31' W 001°05'912.1
2017-Oct-12 04:26N 36°29' W 001°16'512.0
2017-Oct-12 04:00N 36°28' W 001°22'612.2
2017-Oct-12 03:30N 36°27' W 001°30'185 6.7
2017-Oct-10 23:59N 36°08' W 005°19'0 0.1
2017-Oct-10 23:26N 36°08' W 005°19'0 0.1
2017-Oct-10 22:59N 36°08' W 005°19'0 0.1
2017-Oct-10 22:29N 36°08' W 005°18'0 0.0
2017-Oct-10 21:50N 36°08' W 005°18'0 0.2
2017-Oct-10 21:29N 36°08' W 005°18'0 0.0
2017-Oct-10 20:59N 36°08' W 005°18'0 0.0
2017-Oct-10 20:29N 36°08' W 005°18'0 0.0
2017-Oct-10 19:56N 36°08' W 005°18'0 0.1
2017-Oct-10 19:29N 36°08' W 005°18'0 0.1
2017-Oct-10 18:59N 36°08' W 005°18'0 0.1
2017-Oct-10 18:29N 36°08' W 005°18'0 0.1
2017-Oct-10 16:44N 36°08' W 005°18'0 0.0
2017-Oct-10 15:44N 36°08' W 005°18'0 0.1
2017-Oct-10 15:26N 36°08' W 005°18'0 0.2
2017-Oct-10 14:53N 36°08' W 005°19'0 0.0
2017-Oct-10 12:56N 36°08' W 005°19'0 0.1
2017-Oct-10 12:29N 36°08' W 005°19'0 0.1
2017-Oct-10 11:59N 36°08' W 005°19'0 0.0
2017-Oct-10 11:29N 36°08' W 005°19'0 0.1
2017-Oct-10 10:59N 36°08' W 005°19'0 0.0
2017-Oct-10 10:26N 36°08' W 005°18'0 0.0
2017-Oct-10 09:59N 36°08' W 005°19'0 0.1
2017-Oct-10 09:29N 36°08' W 005°18'  
Track history (hours):
 
Tides and Currents Weather Stations Pressure Air Temp Water Temp Dewpoint Dewpoint Depression Visibility Wind Speed Wind Dir Waves Ship Positions

Three Stars

Last reported at 2017-Oct-19 03:46 UTC. Time now 2017-Dec-17 17:53 UTC.
Position N 31°28' E 032°19'.
Warning: this ship's position is 59 days out of date.

Length 225 m; draft 14.3 m.

Type: Cargo ship. MMSI: 372950000.

Date/timePositionNaut miles runAvg speedWind from/ knotsBaromVisibWave heightAir tempDewpointWater temp
2017-Oct-19 03:46N 31°28' E 032°19'0 0.0
2017-Oct-18 23:52N 31°28' E 032°19'  
2017-Oct-15 00:53N 36°18' E 015°11'512.4
2017-Oct-15 00:29N 36°19' E 015°05'712.4
2017-Oct-14 23:53N 36°21' E 014°56'512.2
2017-Oct-14 23:28N 36°23' E 014°50'612.2
2017-Oct-14 23:00N 36°25' E 014°44'612.4
2017-Oct-14 22:30N 36°27' E 014°36'712.5
2017-Oct-14 21:56N 36°29' E 014°28'612.5
2017-Oct-14 21:28N 36°31' E 014°21'612.5
2017-Oct-14 21:00N 36°33' E 014°14'612.4
2017-Oct-14 20:30N 36°35' E 014°07'1212.3
2017-Oct-14 19:29N 36°39' E 013°52'1912.3
2017-Oct-14 17:57N 36°44' E 013°30'512.1
2017-Oct-14 17:30N 36°46' E 013°23'612.0
2017-Oct-14 17:00N 36°48' E 013°16'1011.9
2017-Oct-14 16:10N 36°51' E 013°04'40611.5
2017-Oct-13 04:52N 37°08' E 004°37'4611.8
2017-Oct-13 00:57N 37°02' E 003°40'511.9
2017-Oct-13 00:30N 37°01' E 003°33'611.7
2017-Oct-13 00:00N 36°60' E 003°26'3811.7
2017-Oct-12 20:47N 36°56' E 002°39'411.3
2017-Oct-12 20:24N 36°54' E 002°34'511.7
2017-Oct-12 20:01N 36°54' E 002°28'811.8
2017-Oct-12 19:22N 36°52' E 002°19'511.9
2017-Oct-12 18:59N 36°52' E 002°13'1011.7
2017-Oct-12 18:08N 36°50' E 002°01'211.9
2017-Oct-12 18:00N 36°50' E 001°59'1312.0
2017-Oct-12 16:58N 36°48' E 001°44'511.9
2017-Oct-12 16:30N 36°48' E 001°37'2311.5
2017-Oct-12 14:29N 36°44' E 001°08'511.0
2017-Oct-12 14:00N 36°44' E 001°02'510.9
2017-Oct-12 13:30N 36°43' E 000°55'711.4
2017-Oct-12 12:51N 36°42' E 000°46'411.6
2017-Oct-12 12:30N 36°42' E 000°41'611.7
2017-Oct-12 12:01N 36°41' E 000°34'611.6
2017-Oct-12 11:30N 36°40' E 000°26'611.6
2017-Oct-12 11:00N 36°39' E 000°19'611.6
2017-Oct-12 10:30N 36°38' E 000°12'611.6
2017-Oct-12 09:57N 36°38' E 000°04'511.7
2017-Oct-12 09:29N 36°37' W 000°02'2611.8
2017-Oct-12 07:15N 36°33' W 000°35'511.6
2017-Oct-12 06:50N 36°32' W 000°41'1111.7
2017-Oct-12 05:54N 36°31' W 000°55'811.7
2017-Oct-12 05:11N 36°31' W 001°05'912.1
2017-Oct-12 04:26N 36°29' W 001°16'512.0
2017-Oct-12 04:00N 36°28' W 001°22'612.2
2017-Oct-12 03:30N 36°27' W 001°30'185 6.7
2017-Oct-10 23:59N 36°08' W 005°19'0 0.1
2017-Oct-10 23:26N 36°08' W 005°19'0 0.1
2017-Oct-10 22:59N 36°08' W 005°19'0 0.1
2017-Oct-10 22:29N 36°08' W 005°18'0 0.0
2017-Oct-10 21:50N 36°08' W 005°18'0 0.2
2017-Oct-10 21:29N 36°08' W 005°18'0 0.0
2017-Oct-10 20:59N 36°08' W 005°18'0 0.0
2017-Oct-10 20:29N 36°08' W 005°18'0 0.0
2017-Oct-10 19:56N 36°08' W 005°18'0 0.1
2017-Oct-10 19:29N 36°08' W 005°18'0 0.1
2017-Oct-10 18:59N 36°08' W 005°18'0 0.1
2017-Oct-10 18:29N 36°08' W 005°18'0 0.1
2017-Oct-10 16:44N 36°08' W 005°18'0 0.0
2017-Oct-10 15:44N 36°08' W 005°18'0 0.1
2017-Oct-10 15:26N 36°08' W 005°18'0 0.2
2017-Oct-10 14:53N 36°08' W 005°19'0 0.0
2017-Oct-10 12:56N 36°08' W 005°19'0 0.1
2017-Oct-10 12:29N 36°08' W 005°19'0 0.1
2017-Oct-10 11:59N 36°08' W 005°19'0 0.0
2017-Oct-10 11:29N 36°08' W 005°19'0 0.1
2017-Oct-10 10:59N 36°08' W 005°19'0 0.0
2017-Oct-10 10:26N 36°08' W 005°18'0 0.0
2017-Oct-10 09:59N 36°08' W 005°19'0 0.1
2017-Oct-10 09:29N 36°08' W 005°18'  

Dump ship's entire track history